Willmar, MN

2:55 PM CDT on August 28, 2015 (GMT -0500)
Willmar | | Change Station
CLOSE
Current Station
Personal Weather Station
Location: Willmar, MN
Elevation: 1188 ft
Nearby Weather Stations

Elev 1188 ft 45.15 °N, 95.00 °W | Updated 3 minutes ago

Mostly Cloudy
Mostly Cloudy
75.5 °F
Feels Like 77 °F
N
8.0
Wind Variable Wind from SSE
Gusts 16.0 mph

Today
High -- | Low -- °F
--% Chance of Precip.
Yesterday
High -- | Low -- °F
Precip. -- in
6:36 AM 8:05 PM
Waxing Gibbous, 99% visible
Pressure 29.99 in
Visibility 10.0 miles
Clouds Scattered Clouds 4100 ft
Heat Index 77 °F
Dew Point 65 °F
Humidity 69%
Rainfall 0.00 in
Snow Depth Not available.
UV 4.4 out of 12
Pollen 1.20 out of 12
Air Quality Not available.
Flu Activity Not available.
METAR KPEX 281934Z AUTO 12008KT 10SM SCT041 25/16 A2999 RMK AO2 T02460155
Pressure 29.99 in
Visibility 10.0 miles
Clouds Scattered Clouds 4100 ft
Heat Index 77 °F
Dew Point 65 °F
Humidity 69%
Rainfall 0.00 in
Snow Depth Not available.
UV 4.4 out of 12
Pollen 1.20 out of 12
Air Quality Not available.
Flu Activity Not available.
METAR KPEX 281934Z AUTO 12008KT 10SM SCT041 25/16 A2999 RMK AO2 T02460155

10-Day Weather Forecast

×

Almanac

Astronomy

Aug. 28, 2015 Rise Set
Actual Time
Civil Twilight
Nautical Twilight
Astronomical Twilight
Moon
Length of Visible Light
Length of Day
Tomorrow will be .
, % of the Moon is Illuminated

Today's Extremes

State Highs State Lows

Community

WunderPhotos

Upload Photos

1,850,466 photos uploaded!

WunderBlogs® & News

Nearby

Air Quality

  Air Quality AQ Index Pollutant
Not available.

Snow Depth

Station Depth Elevation

Earthquake Activity

City Distance Mag. Time & Date
Minimum magnitude displayed is 2.5.

Coastal Water Temperatures

Place Temperature

Stations

Nearby Weather Stations

Station Location Temp. Windchill Dew Point Humidity Wind Precip. Elev Updated Type